sensor_id;sensor_type;location;lat;lon;timestamp;P1;durP1;ratioP1;P2;durP2;ratioP2
39294;SDS011;52361;52.100;5.248;2023-07-29T00:00:43;2.31;;;1.11;;
39294;SDS011;52361;52.100;5.248;2023-07-29T00:02:20;3.4;;;1.2;;
39294;SDS011;52361;52.100;5.248;2023-07-29T00:03:56;1.0;;;0.9;;
39294;SDS011;52361;52.100;5.248;2023-07-29T00:07:08;0.7;;;0.5;;
39294;SDS011;52361;52.100;5.248;2023-07-29T00:08:44;1.9;;;0.7;;
39294;SDS011;52361;52.100;5.248;2023-07-29T00:10:20;1.6;;;0.7;;
39294;SDS011;52361;52.100;5.248;2023-07-29T00:13:32;1.2;;;0.8;;
39294;SDS011;52361;52.100;5.248;2023-07-29T00:15:09;3.1;;;0.9;;
39294;SDS011;52361;52.100;5.248;2023-07-29T00:16:48;3.4;;;1.0;;
39294;SDS011;52361;52.100;5.248;2023-07-29T00:20:00;2.8;;;0.6;;
39294;SDS011;52361;52.100;5.248;2023-07-29T00:21:36;1.8;;;0.9;;
39294;SDS011;52361;52.100;5.248;2023-07-29T00:23:12;2.0;;;1.2;;
39294;SDS011;52361;52.100;5.248;2023-07-29T00:24:51;1.3;;;1.0;;
39294;SDS011;52361;52.100;5.248;2023-07-29T00:28:04;0.9;;;0.8;;
39294;SDS011;52361;52.100;5.248;2023-07-29T00:29:40;1.8;;;1.0;;
39294;SDS011;52361;52.100;5.248;2023-07-29T00:31:16;1.0;;;0.8;;
39294;SDS011;52361;52.100;5.248;2023-07-29T00:34:28;4.41;;;0.8;;
39294;SDS011;52361;52.100;5.248;2023-07-29T00:36:04;2.5;;;1.11;;
39294;SDS011;52361;52.100;5.248;2023-07-29T00:40:53;2.4;;;0.8;;
39294;SDS011;52361;52.100;5.248;2023-07-29T00:42:29;3.9;;;0.9;;
39294;SDS011;52361;52.100;5.248;2023-07-29T00:44:05;3.4;;;1.3;;
39294;SDS011;52361;52.100;5.248;2023-07-29T00:45:41;2.0;;;0.6;;
39294;SDS011;52361;52.100;5.248;2023-07-29T00:48:57;1.3;;;0.7;;
39294;SDS011;52361;52.100;5.248;2023-07-29T00:50:33;1.4;;;0.7;;
39294;SDS011;52361;52.100;5.248;2023-07-29T00:52:10;1.8;;;1.11;;
39294;SDS011;52361;52.100;5.248;2023-07-29T00:55:22;1.2;;;0.8;;
39294;SDS011;52361;52.100;5.248;2023-07-29T00:56:58;1.9;;;0.8;;
39294;SDS011;52361;52.100;5.248;2023-07-29T00:58:34;1.2;;;1.0;;
39294;SDS011;52361;52.100;5.248;2023-07-29T01:01:47;1.2;;;1.11;;
39294;SDS011;52361;52.100;5.248;2023-07-29T01:03:23;1.4;;;0.7;;
39294;SDS011;52361;52.100;5.248;2023-07-29T01:04:59;1.2;;;0.9;;
39294;SDS011;52361;52.100;5.248;2023-07-29T01:06:39;1.6;;;0.8;;
39294;SDS011;52361;52.100;5.248;2023-07-29T01:10:10;5.7;;;1.11;;
39294;SDS011;52361;52.100;5.248;2023-07-29T01:11:58;2.31;;;0.9;;
39294;SDS011;52361;52.100;5.248;2023-07-29T01:13:45;1.8;;;1.0;;
39294;SDS011;52361;52.100;5.248;2023-07-29T01:15:30;6.2;;;1.4;;
39294;SDS011;52361;52.100;5.248;2023-07-29T01:17:13;1.2;;;1.0;;
39294;SDS011;52361;52.100;5.248;2023-07-29T01:19:06;7.7;;;1.5;;
39294;SDS011;52361;52.100;5.248;2023-07-29T01:22:23;2.5;;;1.2;;
39294;SDS011;52361;52.100;5.248;2023-07-29T01:24:00;1.6;;;1.3;;
39294;SDS011;52361;52.100;5.248;2023-07-29T01:25:36;2.7;;;1.5;;
39294;SDS011;52361;52.100;5.248;2023-07-29T01:28:48;1.5;;;1.2;;
39294;SDS011;52361;52.100;5.248;2023-07-29T01:30:25;3.9;;;1.11;;
39294;SDS011;52361;52.100;5.248;2023-07-29T01:32:14;4.3;;;1.5;;
39294;SDS011;52361;52.100;5.248;2023-07-29T01:33:57;5.0;;;1.2;;
39294;SDS011;52361;52.100;5.248;2023-07-29T01:37:22;3.5;;;1.4;;
39294;SDS011;52361;52.100;5.248;2023-07-29T01:39:02;4.91;;;1.7;;
39294;SDS011;52361;52.100;5.248;2023-07-29T01:40:38;3.6;;;1.3;;
39294;SDS011;52361;52.100;5.248;2023-07-29T01:42:16;3.2;;;1.6;;
39294;SDS011;52361;52.100;5.248;2023-07-29T01:45:29;3.3;;;1.7;;
39294;SDS011;52361;52.100;5.248;2023-07-29T01:47:06;3.0;;;1.5;;
39294;SDS011;52361;52.100;5.248;2023-07-29T01:48:42;3.4;;;1.8;;
39294;SDS011;52361;52.100;5.248;2023-07-29T01:51:54;9.71;;;1.6;;
39294;SDS011;52361;52.100;5.248;2023-07-29T01:53:30;3.2;;;1.4;;
39294;SDS011;52361;52.100;5.248;2023-07-29T01:55:06;3.8;;;1.7;;
39294;SDS011;52361;52.100;5.248;2023-07-29T01:58:19;3.5;;;1.3;;
39294;SDS011;52361;52.100;5.248;2023-07-29T01:59:56;2.9;;;1.7;;
39294;SDS011;52361;52.100;5.248;2023-07-29T02:01:32;4.3;;;1.7;;
39294;SDS011;52361;52.100;5.248;2023-07-29T02:03:08;4.3;;;2.0;;
39294;SDS011;52361;52.100;5.248;2023-07-29T02:06:20;3.1;;;2.0;;
39294;SDS011;52361;52.100;5.248;2023-07-29T02:07:56;2.5;;;1.6;;
39294;SDS011;52361;52.100;5.248;2023-07-29T02:09:32;3.2;;;1.7;;
39294;SDS011;52361;52.100;5.248;2023-07-29T02:12:45;3.1;;;1.7;;
39294;SDS011;52361;52.100;5.248;2023-07-29T02:14:21;3.1;;;1.4;;
39294;SDS011;52361;52.100;5.248;2023-07-29T02:15:57;5.5;;;2.1;;
39294;SDS011;52361;52.100;5.248;2023-07-29T02:19:09;3.3;;;1.8;;
39294;SDS011;52361;52.100;5.248;2023-07-29T02:20:45;3.7;;;1.7;;
39294;SDS011;52361;52.100;5.248;2023-07-29T02:22:21;2.7;;;1.8;;
39294;SDS011;52361;52.100;5.248;2023-07-29T02:23:58;4.8;;;1.8;;
39294;SDS011;52361;52.100;5.248;2023-07-29T02:27:11;3.2;;;1.7;;
39294;SDS011;52361;52.100;5.248;2023-07-29T02:28:47;5.2;;;2.0;;
39294;SDS011;52361;52.100;5.248;2023-07-29T02:30:23;9.1;;;2.0;;
39294;SDS011;52361;52.100;5.248;2023-07-29T02:33:35;2.9;;;1.8;;
39294;SDS011;52361;52.100;5.248;2023-07-29T02:35:11;5.8;;;2.21;;
39294;SDS011;52361;52.100;5.248;2023-07-29T02:36:47;4.91;;;2.0;;
39294;SDS011;52361;52.100;5.248;2023-07-29T02:40:00;3.0;;;1.5;;
39294;SDS011;52361;52.100;5.248;2023-07-29T02:41:36;4.7;;;2.1;;
39294;SDS011;52361;52.100;5.248;2023-07-29T02:43:12;6.2;;;2.1;;
39294;SDS011;52361;52.100;5.248;2023-07-29T02:46:24;3.7;;;2.31;;
39294;SDS011;52361;52.100;5.248;2023-07-29T02:48:00;5.2;;;2.0;;
39294;SDS011;52361;52.100;5.248;2023-07-29T02:49:36;2.31;;;1.4;;
39294;SDS011;52361;52.100;5.248;2023-07-29T02:51:13;3.6;;;1.6;;
39294;SDS011;52361;52.100;5.248;2023-07-29T02:54:25;4.7;;;1.8;;
39294;SDS011;52361;52.100;5.248;2023-07-29T02:56:01;5.0;;;1.9;;
39294;SDS011;52361;52.100;5.248;2023-07-29T02:57:37;4.2;;;1.4;;
39294;SDS011;52361;52.100;5.248;2023-07-29T03:00:49;2.0;;;1.3;;
39294;SDS011;52361;52.100;5.248;2023-07-29T03:02:25;2.6;;;1.5;;
39294;SDS011;52361;52.100;5.248;2023-07-29T03:04:02;2.7;;;1.7;;
39294;SDS011;52361;52.100;5.248;2023-07-29T03:07:14;1.9;;;1.4;;
39294;SDS011;52361;52.100;5.248;2023-07-29T03:08:50;3.7;;;1.5;;
39294;SDS011;52361;52.100;5.248;2023-07-29T03:10:26;2.4;;;1.11;;
39294;SDS011;52361;52.100;5.248;2023-07-29T03:12:02;1.9;;;1.3;;
39294;SDS011;52361;52.100;5.248;2023-07-29T03:15:15;3.7;;;1.3;;
39294;SDS011;52361;52.100;5.248;2023-07-29T03:16:51;3.2;;;1.2;;
39294;SDS011;52361;52.100;5.248;2023-07-29T03:18:27;4.91;;;1.2;;
39294;SDS011;52361;52.100;5.248;2023-07-29T03:21:40;2.9;;;1.3;;
39294;SDS011;52361;52.100;5.248;2023-07-29T03:23:16;2.7;;;1.4;;
39294;SDS011;52361;52.100;5.248;2023-07-29T03:24:52;2.21;;;1.3;;
39294;SDS011;52361;52.100;5.248;2023-07-29T03:28:05;2.21;;;1.3;;
39294;SDS011;52361;52.100;5.248;2023-07-29T03:29:41;1.7;;;1.11;;
39294;SDS011;52361;52.100;5.248;2023-07-29T03:31:17;2.31;;;1.3;;
39294;SDS011;52361;52.100;5.248;2023-07-29T03:34:29;1.9;;;1.0;;
39294;SDS011;52361;52.100;5.248;2023-07-29T03:36:05;5.0;;;1.9;;
39294;SDS011;52361;52.100;5.248;2023-07-29T03:37:41;2.6;;;1.3;;
39294;SDS011;52361;52.100;5.248;2023-07-29T03:39:17;2.8;;;1.4;;
39294;SDS011;52361;52.100;5.248;2023-07-29T03:42:30;2.21;;;1.5;;
39294;SDS011;52361;52.100;5.248;2023-07-29T03:44:06;2.0;;;1.11;;
39294;SDS011;52361;52.100;5.248;2023-07-29T03:45:42;2.5;;;1.2;;
39294;SDS011;52361;52.100;5.248;2023-07-29T03:48:54;2.5;;;1.2;;
39294;SDS011;52361;52.100;5.248;2023-07-29T03:50:30;1.2;;;1.11;;
39294;SDS011;52361;52.100;5.248;2023-07-29T03:52:09;3.4;;;1.3;;
39294;SDS011;52361;52.100;5.248;2023-07-29T03:55:22;2.9;;;1.0;;
39294;SDS011;52361;52.100;5.248;2023-07-29T03:56:59;2.1;;;1.5;;
39294;SDS011;52361;52.100;5.248;2023-07-29T03:58:35;1.7;;;0.9;;
39294;SDS011;52361;52.100;5.248;2023-07-29T04:00:11;1.11;;;1.0;;
39294;SDS011;52361;52.100;5.248;2023-07-29T04:03:24;2.21;;;0.8;;
39294;SDS011;52361;52.100;5.248;2023-07-29T04:05:00;2.1;;;1.0;;
39294;SDS011;52361;52.100;5.248;2023-07-29T04:06:37;1.9;;;1.0;;
39294;SDS011;52361;52.100;5.248;2023-07-29T04:09:49;1.8;;;1.0;;
39294;SDS011;52361;52.100;5.248;2023-07-29T04:11:25;4.2;;;1.5;;
39294;SDS011;52361;52.100;5.248;2023-07-29T04:13:01;2.0;;;1.11;;
39294;SDS011;52361;52.100;5.248;2023-07-29T04:16:13;2.21;;;1.2;;
39294;SDS011;52361;52.100;5.248;2023-07-29T04:17:50;1.2;;;0.9;;
39294;SDS011;52361;52.100;5.248;2023-07-29T04:19:26;3.3;;;1.0;;
39294;SDS011;52361;52.100;5.248;2023-07-29T04:22:38;1.4;;;1.0;;
39294;SDS011;52361;52.100;5.248;2023-07-29T04:24:14;1.6;;;1.0;;
39294;SDS011;52361;52.100;5.248;2023-07-29T04:25:50;2.21;;;1.2;;
39294;SDS011;52361;52.100;5.248;2023-07-29T04:27:26;1.5;;;1.0;;
39294;SDS011;52361;52.100;5.248;2023-07-29T04:30:38;3.6;;;1.2;;
39294;SDS011;52361;52.100;5.248;2023-07-29T04:32:15;2.21;;;1.4;;
39294;SDS011;52361;52.100;5.248;2023-07-29T04:33:51;2.5;;;1.3;;
39294;SDS011;52361;52.100;5.248;2023-07-29T04:37:03;2.8;;;0.8;;
39294;SDS011;52361;52.100;5.248;2023-07-29T04:38:39;2.6;;;1.11;;
39294;SDS011;52361;52.100;5.248;2023-07-29T04:40:15;1.2;;;1.11;;
39294;SDS011;52361;52.100;5.248;2023-07-29T04:43:28;1.5;;;0.8;;
39294;SDS011;52361;52.100;5.248;2023-07-29T04:45:06;2.6;;;1.0;;
39294;SDS011;52361;52.100;5.248;2023-07-29T04:46:43;1.5;;;1.11;;
39294;SDS011;52361;52.100;5.248;2023-07-29T04:48:19;1.8;;;1.3;;
39294;SDS011;52361;52.100;5.248;2023-07-29T04:51:31;2.9;;;1.11;;
39294;SDS011;52361;52.100;5.248;2023-07-29T04:53:07;3.5;;;1.0;;
39294;SDS011;52361;52.100;5.248;2023-07-29T04:54:43;1.9;;;1.0;;
39294;SDS011;52361;52.100;5.248;2023-07-29T04:57:56;1.8;;;1.0;;
39294;SDS011;52361;52.100;5.248;2023-07-29T04:59:32;2.7;;;1.3;;
39294;SDS011;52361;52.100;5.248;2023-07-29T05:01:08;2.21;;;1.11;;
39294;SDS011;52361;52.100;5.248;2023-07-29T05:04:20;3.8;;;1.5;;
39294;SDS011;52361;52.100;5.248;2023-07-29T05:05:58;2.0;;;0.9;;
39294;SDS011;52361;52.100;5.248;2023-07-29T05:07:34;3.2;;;1.0;;
39294;SDS011;52361;52.100;5.248;2023-07-29T05:12:27;3.3;;;1.6;;
39294;SDS011;52361;52.100;5.248;2023-07-29T05:14:03;1.9;;;1.2;;
39294;SDS011;52361;52.100;5.248;2023-07-29T05:15:39;1.9;;;1.2;;
39294;SDS011;52361;52.100;5.248;2023-07-29T05:18:51;4.1;;;1.9;;
39294;SDS011;52361;52.100;5.248;2023-07-29T05:20:27;2.6;;;1.8;;
39294;SDS011;52361;52.100;5.248;2023-07-29T05:22:04;2.4;;;1.3;;
39294;SDS011;52361;52.100;5.248;2023-07-29T05:25:16;2.5;;;1.6;;
39294;SDS011;52361;52.100;5.248;2023-07-29T05:26:52;2.0;;;1.0;;
39294;SDS011;52361;52.100;5.248;2023-07-29T05:28:28;2.0;;;1.2;;
39294;SDS011;52361;52.100;5.248;2023-07-29T05:31:42;2.8;;;1.4;;
39294;SDS011;52361;52.100;5.248;2023-07-29T05:33:18;3.6;;;1.3;;
39294;SDS011;52361;52.100;5.248;2023-07-29T05:34:54;1.8;;;1.0;;
39294;SDS011;52361;52.100;5.248;2023-07-29T05:36:31;2.9;;;1.4;;
39294;SDS011;52361;52.100;5.248;2023-07-29T05:39:43;2.31;;;1.2;;
39294;SDS011;52361;52.100;5.248;2023-07-29T05:41:19;3.7;;;1.6;;
39294;SDS011;52361;52.100;5.248;2023-07-29T05:42:55;2.8;;;1.5;;
39294;SDS011;52361;52.100;5.248;2023-07-29T05:46:07;2.8;;;1.5;;
39294;SDS011;52361;52.100;5.248;2023-07-29T05:47:43;3.4;;;1.5;;
39294;SDS011;52361;52.100;5.248;2023-07-29T05:49:20;5.4;;;1.6;;
39294;SDS011;52361;52.100;5.248;2023-07-29T05:52:32;3.5;;;1.6;;
39294;SDS011;52361;52.100;5.248;2023-07-29T05:54:09;3.3;;;2.21;;
39294;SDS011;52361;52.100;5.248;2023-07-29T05:55:45;3.6;;;1.5;;
39294;SDS011;52361;52.100;5.248;2023-07-29T05:57:21;2.31;;;1.6;;
39294;SDS011;52361;52.100;5.248;2023-07-29T06:00:34;2.4;;;1.7;;
39294;SDS011;52361;52.100;5.248;2023-07-29T06:02:10;9.6;;;1.9;;
39294;SDS011;52361;52.100;5.248;2023-07-29T06:03:46;2.6;;;1.4;;
39294;SDS011;52361;52.100;5.248;2023-07-29T06:06:58;2.31;;;1.4;;
39294;SDS011;52361;52.100;5.248;2023-07-29T06:08:34;3.3;;;1.8;;
39294;SDS011;52361;52.100;5.248;2023-07-29T06:10:12;2.7;;;1.6;;
39294;SDS011;52361;52.100;5.248;2023-07-29T06:13:25;3.2;;;1.5;;
39294;SDS011;52361;52.100;5.248;2023-07-29T06:15:02;4.0;;;2.21;;
39294;SDS011;52361;52.100;5.248;2023-07-29T06:16:38;3.3;;;1.8;;
39294;SDS011;52361;52.100;5.248;2023-07-29T06:18:14;1.9;;;1.4;;
39294;SDS011;52361;52.100;5.248;2023-07-29T06:21:26;4.7;;;1.5;;
39294;SDS011;52361;52.100;5.248;2023-07-29T06:23:03;5.6;;;1.5;;
39294;SDS011;52361;52.100;5.248;2023-07-29T06:24:39;2.7;;;1.7;;
39294;SDS011;52361;52.100;5.248;2023-07-29T06:27:52;2.0;;;1.7;;
39294;SDS011;52361;52.100;5.248;2023-07-29T06:29:28;5.0;;;1.7;;
39294;SDS011;52361;52.100;5.248;2023-07-29T06:31:03;3.4;;;1.9;;
39294;SDS011;52361;52.100;5.248;2023-07-29T06:34:16;4.5;;;1.9;;
39294;SDS011;52361;52.100;5.248;2023-07-29T06:35:53;4.1;;;1.7;;
39294;SDS011;52361;52.100;5.248;2023-07-29T06:37:29;4.1;;;1.7;;
39294;SDS011;52361;52.100;5.248;2023-07-29T06:40:42;2.8;;;1.8;;
39294;SDS011;52361;52.100;5.248;2023-07-29T06:42:18;3.3;;;1.6;;
39294;SDS011;52361;52.100;5.248;2023-07-29T06:43:54;3.0;;;1.6;;
39294;SDS011;52361;52.100;5.248;2023-07-29T06:45:30;5.6;;;1.9;;
39294;SDS011;52361;52.100;5.248;2023-07-29T06:48:42;3.2;;;2.21;;
39294;SDS011;52361;52.100;5.248;2023-07-29T06:50:19;3.0;;;1.9;;
39294;SDS011;52361;52.100;5.248;2023-07-29T06:51:55;5.6;;;1.8;;
39294;SDS011;52361;52.100;5.248;2023-07-29T06:55:07;5.4;;;1.8;;
39294;SDS011;52361;52.100;5.248;2023-07-29T06:56:43;5.2;;;2.21;;
39294;SDS011;52361;52.100;5.248;2023-07-29T06:58:19;2.6;;;2.1;;
39294;SDS011;52361;52.100;5.248;2023-07-29T07:01:33;3.4;;;1.7;;
39294;SDS011;52361;52.100;5.248;2023-07-29T07:03:10;3.7;;;2.1;;
39294;SDS011;52361;52.100;5.248;2023-07-29T07:04:46;3.6;;;1.9;;
39294;SDS011;52361;52.100;5.248;2023-07-29T07:06:22;4.5;;;2.0;;
39294;SDS011;52361;52.100;5.248;2023-07-29T07:09:34;3.7;;;1.6;;
39294;SDS011;52361;52.100;5.248;2023-07-29T07:11:10;4.5;;;2.8;;
39294;SDS011;52361;52.100;5.248;2023-07-29T07:16:00;5.2;;;2.6;;
39294;SDS011;52361;52.100;5.248;2023-07-29T07:17:36;3.2;;;2.4;;
39294;SDS011;52361;52.100;5.248;2023-07-29T07:19:12;4.2;;;1.8;;
39294;SDS011;52361;52.100;5.248;2023-07-29T07:22:25;4.1;;;2.6;;
39294;SDS011;52361;52.100;5.248;2023-07-29T07:24:01;2.9;;;1.7;;
39294;SDS011;52361;52.100;5.248;2023-07-29T07:25:37;6.1;;;2.1;;
39294;SDS011;52361;52.100;5.248;2023-07-29T07:28:50;3.6;;;2.31;;
39294;SDS011;52361;52.100;5.248;2023-07-29T07:30:26;4.0;;;2.21;;
39294;SDS011;52361;52.100;5.248;2023-07-29T07:32:02;3.4;;;2.31;;
39294;SDS011;52361;52.100;5.248;2023-07-29T07:33:39;3.5;;;2.4;;
39294;SDS011;52361;52.100;5.248;2023-07-29T07:36:51;5.11;;;2.5;;
39294;SDS011;52361;52.100;5.248;2023-07-29T07:38:27;3.9;;;2.1;;
39294;SDS011;52361;52.100;5.248;2023-07-29T07:40:04;5.11;;;3.2;;
39294;SDS011;52361;52.100;5.248;2023-07-29T07:43:18;4.7;;;3.2;;
39294;SDS011;52361;52.100;5.248;2023-07-29T07:44:54;3.5;;;2.31;;
39294;SDS011;52361;52.100;5.248;2023-07-29T07:46:30;5.2;;;2.5;;
39294;SDS011;52361;52.100;5.248;2023-07-29T07:49:42;5.3;;;3.1;;
39294;SDS011;52361;52.100;5.248;2023-07-29T07:51:18;7.0;;;2.8;;
39294;SDS011;52361;52.100;5.248;2023-07-29T07:52:55;5.2;;;2.6;;
39294;SDS011;52361;52.100;5.248;2023-07-29T07:54:31;6.9;;;2.6;;
39294;SDS011;52361;52.100;5.248;2023-07-29T07:57:43;5.9;;;2.4;;
39294;SDS011;52361;52.100;5.248;2023-07-29T07:59:19;2.6;;;1.9;;
39294;SDS011;52361;52.100;5.248;2023-07-29T08:01:00;4.3;;;2.21;;
39294;SDS011;52361;52.100;5.248;2023-07-29T08:04:12;3.4;;;2.0;;
39294;SDS011;52361;52.100;5.248;2023-07-29T08:05:49;3.5;;;2.31;;
39294;SDS011;52361;52.100;5.248;2023-07-29T08:07:25;3.2;;;2.0;;
39294;SDS011;52361;52.100;5.248;2023-07-29T08:10:37;7.1;;;2.1;;
39294;SDS011;52361;52.100;5.248;2023-07-29T08:12:13;4.3;;;2.4;;
39294;SDS011;52361;52.100;5.248;2023-07-29T08:13:49;2.8;;;2.4;;
39294;SDS011;52361;52.100;5.248;2023-07-29T08:15:25;2.21;;;1.9;;
39294;SDS011;52361;52.100;5.248;2023-07-29T08:18:38;2.21;;;1.9;;
39294;SDS011;52361;52.100;5.248;2023-07-29T08:20:14;3.4;;;2.1;;
39294;SDS011;52361;52.100;5.248;2023-07-29T08:21:50;2.1;;;1.7;;
39294;SDS011;52361;52.100;5.248;2023-07-29T08:25:03;4.8;;;2.21;;
39294;SDS011;52361;52.100;5.248;2023-07-29T08:26:40;2.21;;;1.9;;
39294;SDS011;52361;52.100;5.248;2023-07-29T08:28:16;3.8;;;2.9;;
39294;SDS011;52361;52.100;5.248;2023-07-29T08:31:29;2.7;;;2.0;;
39294;SDS011;52361;52.100;5.248;2023-07-29T08:33:06;2.5;;;2.0;;
39294;SDS011;52361;52.100;5.248;2023-07-29T08:34:42;4.41;;;2.1;;
39294;SDS011;52361;52.100;5.248;2023-07-29T08:36:18;4.5;;;2.0;;
39294;SDS011;52361;52.100;5.248;2023-07-29T08:39:30;3.1;;;1.8;;
39294;SDS011;52361;52.100;5.248;2023-07-29T08:41:09;3.7;;;2.0;;
39294;SDS011;52361;52.100;5.248;2023-07-29T08:42:52;2.7;;;1.8;;
39294;SDS011;52361;52.100;5.248;2023-07-29T08:46:16;2.5;;;2.31;;
39294;SDS011;52361;52.100;5.248;2023-07-29T08:47:52;2.5;;;1.9;;
39294;SDS011;52361;52.100;5.248;2023-07-29T08:49:33;1.8;;;1.7;;
39294;SDS011;52361;52.100;5.248;2023-07-29T08:51:11;2.7;;;2.1;;
39294;SDS011;52361;52.100;5.248;2023-07-29T08:54:25;4.5;;;1.8;;
39294;SDS011;52361;52.100;5.248;2023-07-29T08:56:01;2.5;;;2.0;;
39294;SDS011;52361;52.100;5.248;2023-07-29T08:57:38;2.0;;;1.6;;
39294;SDS011;52361;52.100;5.248;2023-07-29T09:00:51;2.4;;;1.9;;
39294;SDS011;52361;52.100;5.248;2023-07-29T09:02:28;2.5;;;1.9;;
39294;SDS011;52361;52.100;5.248;2023-07-29T09:04:04;2.9;;;2.1;;
39294;SDS011;52361;52.100;5.248;2023-07-29T09:05:40;2.21;;;1.9;;
39294;SDS011;52361;52.100;5.248;2023-07-29T09:08:54;2.5;;;2.31;;
39294;SDS011;52361;52.100;5.248;2023-07-29T09:10:30;2.6;;;2.1;;
39294;SDS011;52361;52.100;5.248;2023-07-29T09:12:11;2.5;;;1.9;;
39294;SDS011;52361;52.100;5.248;2023-07-29T09:15:27;4.5;;;2.4;;
39294;SDS011;52361;52.100;5.248;2023-07-29T09:17:06;3.9;;;2.1;;
39294;SDS011;52361;52.100;5.248;2023-07-29T09:18:42;5.11;;;2.21;;
39294;SDS011;52361;52.100;5.248;2023-07-29T09:20:23;2.21;;;2.0;;
39294;SDS011;52361;52.100;5.248;2023-07-29T09:23:39;3.2;;;1.9;;
39294;SDS011;52361;52.100;5.248;2023-07-29T09:25:16;2.6;;;2.1;;
39294;SDS011;52361;52.100;5.248;2023-07-29T09:26:59;3.4;;;1.9;;
39294;SDS011;52361;52.100;5.248;2023-07-29T09:30:15;3.4;;;2.1;;
39294;SDS011;52361;52.100;5.248;2023-07-29T09:31:51;4.0;;;2.6;;
39294;SDS011;52361;52.100;5.248;2023-07-29T09:33:28;4.5;;;2.0;;
39294;SDS011;52361;52.100;5.248;2023-07-29T09:35:07;2.4;;;2.21;;
39294;SDS011;52361;52.100;5.248;2023-07-29T09:38:26;5.5;;;2.4;;
39294;SDS011;52361;52.100;5.248;2023-07-29T09:40:03;2.31;;;1.9;;
39294;SDS011;52361;52.100;5.248;2023-07-29T09:41:40;4.0;;;2.31;;
39294;SDS011;52361;52.100;5.248;2023-07-29T09:43:16;6.1;;;2.6;;
39294;SDS011;52361;52.100;5.248;2023-07-29T09:46:32;6.1;;;2.6;;
39294;SDS011;52361;52.100;5.248;2023-07-29T09:48:09;4.1;;;3.1;;
39294;SDS011;52361;52.100;5.248;2023-07-29T09:49:45;4.1;;;2.9;;
39294;SDS011;52361;52.100;5.248;2023-07-29T09:52:57;7.8;;;2.9;;
39294;SDS011;52361;52.100;5.248;2023-07-29T09:54:33;4.61;;;2.7;;
39294;SDS011;52361;52.100;5.248;2023-07-29T09:56:12;4.91;;;3.4;;
39294;SDS011;52361;52.100;5.248;2023-07-29T10:01:10;7.2;;;3.2;;
39294;SDS011;52361;52.100;5.248;2023-07-29T10:02:47;3.9;;;3.0;;
39294;SDS011;52361;52.100;5.248;2023-07-29T10:04:24;3.3;;;2.6;;
39294;SDS011;52361;52.100;5.248;2023-07-29T10:07:39;5.9;;;2.9;;
39294;SDS011;52361;52.100;5.248;2023-07-29T10:09:15;5.7;;;3.4;;
39294;SDS011;52361;52.100;5.248;2023-07-29T10:10:53;5.11;;;3.0;;
39294;SDS011;52361;52.100;5.248;2023-07-29T10:14:08;5.8;;;3.1;;
39294;SDS011;52361;52.100;5.248;2023-07-29T10:15:45;4.2;;;3.4;;
39294;SDS011;52361;52.100;5.248;2023-07-29T10:17:22;6.9;;;3.4;;
39294;SDS011;52361;52.100;5.248;2023-07-29T10:19:01;5.2;;;3.4;;
39294;SDS011;52361;52.100;5.248;2023-07-29T10:22:19;6.6;;;3.3;;
39294;SDS011;52361;52.100;5.248;2023-07-29T10:23:57;4.41;;;3.4;;
39294;SDS011;52361;52.100;5.248;2023-07-29T10:25:43;4.3;;;3.5;;
39294;SDS011;52361;52.100;5.248;2023-07-29T10:27:23;6.2;;;3.6;;
39294;SDS011;52361;52.100;5.248;2023-07-29T10:30:42;5.5;;;3.2;;
39294;SDS011;52361;52.100;5.248;2023-07-29T10:32:18;10.3;;;4.7;;
39294;SDS011;52361;52.100;5.248;2023-07-29T10:34:01;6.2;;;3.2;;
39294;SDS011;52361;52.100;5.248;2023-07-29T10:35:38;5.3;;;2.8;;
39294;SDS011;52361;52.100;5.248;2023-07-29T10:38:51;11.1;;;2.9;;
39294;SDS011;52361;52.100;5.248;2023-07-29T10:40:43;6.9;;;3.0;;
39294;SDS011;52361;52.100;5.248;2023-07-29T10:42:20;3.3;;;3.0;;
39294;SDS011;52361;52.100;5.248;2023-07-29T10:43:57;4.91;;;3.1;;
39294;SDS011;52361;52.100;5.248;2023-07-29T10:47:15;4.7;;;2.7;;
39294;SDS011;52361;52.100;5.248;2023-07-29T10:48:53;4.2;;;3.3;;
39294;SDS011;52361;52.100;5.248;2023-07-29T10:53:43;3.9;;;2.8;;
39294;SDS011;52361;52.100;5.248;2023-07-29T10:55:27;4.1;;;2.6;;
39294;SDS011;52361;52.100;5.248;2023-07-29T10:57:05;3.9;;;2.9;;
39294;SDS011;52361;52.100;5.248;2023-07-29T10:58:43;2.4;;;1.8;;
39294;SDS011;52361;52.100;5.248;2023-07-29T11:01:56;4.41;;;2.1;;
39294;SDS011;52361;52.100;5.248;2023-07-29T11:03:34;3.2;;;1.8;;
39294;SDS011;52361;52.100;5.248;2023-07-29T11:05:15;1.7;;;1.6;;
39294;SDS011;52361;52.100;5.248;2023-07-29T11:09:21;2.0;;;1.4;;
39294;SDS011;52361;52.100;5.248;2023-07-29T11:11:14;1.5;;;1.4;;
39294;SDS011;52361;52.100;5.248;2023-07-29T11:14:28;2.0;;;1.2;;
39294;SDS011;52361;52.100;5.248;2023-07-29T11:16:05;3.7;;;1.5;;
39294;SDS011;52361;52.100;5.248;2023-07-29T11:17:43;2.21;;;1.4;;
39294;SDS011;52361;52.100;5.248;2023-07-29T11:20:57;1.5;;;0.9;;
39294;SDS011;52361;52.100;5.248;2023-07-29T11:22:35;1.3;;;1.2;;
39294;SDS011;52361;52.100;5.248;2023-07-29T11:24:13;1.3;;;1.2;;
39294;SDS011;52361;52.100;5.248;2023-07-29T11:25:54;1.3;;;0.8;;
39294;SDS011;52361;52.100;5.248;2023-07-29T11:29:06;1.6;;;0.8;;
39294;SDS011;52361;52.100;5.248;2023-07-29T11:30:45;5.5;;;1.11;;
39294;SDS011;52361;52.100;5.248;2023-07-29T11:32:21;1.6;;;1.0;;
39294;SDS011;52361;52.100;5.248;2023-07-29T11:35:33;1.2;;;0.9;;
39294;SDS011;52361;52.100;5.248;2023-07-29T11:37:10;2.0;;;1.4;;
39294;SDS011;52361;52.100;5.248;2023-07-29T11:38:47;1.0;;;0.8;;
39294;SDS011;52361;52.100;5.248;2023-07-29T11:42:00;1.3;;;1.0;;
39294;SDS011;52361;52.100;5.248;2023-07-29T11:43:36;1.4;;;0.9;;
39294;SDS011;52361;52.100;5.248;2023-07-29T11:45:12;1.7;;;1.0;;
39294;SDS011;52361;52.100;5.248;2023-07-29T11:46:50;1.3;;;0.9;;
39294;SDS011;52361;52.100;5.248;2023-07-29T11:50:03;1.4;;;1.0;;
39294;SDS011;52361;52.100;5.248;2023-07-29T11:51:42;1.4;;;1.0;;
39294;SDS011;52361;52.100;5.248;2023-07-29T11:53:18;2.4;;;1.2;;
39294;SDS011;52361;52.100;5.248;2023-07-29T11:58:07;3.3;;;1.5;;
39294;SDS011;52361;52.100;5.248;2023-07-29T11:59:44;1.2;;;1.0;;
39294;SDS011;52361;52.100;5.248;2023-07-29T12:01:22;2.6;;;1.2;;
39294;SDS011;52361;52.100;5.248;2023-07-29T12:04:35;1.3;;;1.2;;
39294;SDS011;52361;52.100;5.248;2023-07-29T12:06:13;3.2;;;1.6;;
39294;SDS011;52361;52.100;5.248;2023-07-29T12:07:50;1.11;;;1.0;;
39294;SDS011;52361;52.100;5.248;2023-07-29T12:11:03;1.3;;;0.8;;
39294;SDS011;52361;52.100;5.248;2023-07-29T12:12:45;1.2;;;1.11;;
39294;SDS011;52361;52.100;5.248;2023-07-29T12:14:25;1.3;;;0.9;;
39294;SDS011;52361;52.100;5.248;2023-07-29T12:16:02;1.0;;;0.9;;
39294;SDS011;52361;52.100;5.248;2023-07-29T12:19:16;1.5;;;1.0;;
39294;SDS011;52361;52.100;5.248;2023-07-29T12:20:52;1.3;;;1.0;;
39294;SDS011;52361;52.100;5.248;2023-07-29T12:22:28;1.6;;;0.7;;
39294;SDS011;52361;52.100;5.248;2023-07-29T12:25:41;1.11;;;1.0;;
39294;SDS011;52361;52.100;5.248;2023-07-29T12:27:17;1.2;;;0.9;;
39294;SDS011;52361;52.100;5.248;2023-07-29T12:28:53;1.9;;;1.5;;
39294;SDS011;52361;52.100;5.248;2023-07-29T12:32:06;1.0;;;0.9;;
39294;SDS011;52361;52.100;5.248;2023-07-29T12:33:43;1.2;;;1.11;;
39294;SDS011;52361;52.100;5.248;2023-07-29T12:35:19;0.9;;;0.8;;
39294;SDS011;52361;52.100;5.248;2023-07-29T12:36:55;1.6;;;1.11;;
39294;SDS011;52361;52.100;5.248;2023-07-29T12:40:20;1.6;;;1.0;;
39294;SDS011;52361;52.100;5.248;2023-07-29T12:41:58;1.8;;;1.5;;
39294;SDS011;52361;52.100;5.248;2023-07-29T12:43:36;1.4;;;1.0;;
39294;SDS011;52361;52.100;5.248;2023-07-29T12:46:51;1.8;;;1.0;;
39294;SDS011;52361;52.100;5.248;2023-07-29T12:50:04;1.6;;;1.4;;
39294;SDS011;52361;52.100;5.248;2023-07-29T12:51:41;1.8;;;1.5;;
39294;SDS011;52361;52.100;5.248;2023-07-29T12:54:53;2.1;;;1.4;;
39294;SDS011;52361;52.100;5.248;2023-07-29T12:56:28;1.4;;;1.0;;
39294;SDS011;52361;52.100;5.248;2023-07-29T12:58:05;1.8;;;1.2;;
39294;SDS011;52361;52.100;5.248;2023-07-29T13:01:17;1.3;;;1.0;;
39294;SDS011;52361;52.100;5.248;2023-07-29T13:02:53;1.6;;;1.4;;
39294;SDS011;52361;52.100;5.248;2023-07-29T13:04:29;3.0;;;1.11;;
39294;SDS011;52361;52.100;5.248;2023-07-29T13:07:42;1.0;;;0.8;;
39294;SDS011;52361;52.100;5.248;2023-07-29T13:09:19;2.5;;;1.0;;
39294;SDS011;52361;52.100;5.248;2023-07-29T13:10:54;0.9;;;0.9;;
39294;SDS011;52361;52.100;5.248;2023-07-29T13:12:30;2.8;;;0.9;;